createdAt,value
2018-11-20T00:01:37.380Z,4.50
2018-11-20T00:07:39.643Z,6.23
2018-11-20T00:13:23.680Z,4.57
2018-11-20T00:19:06.345Z,5.43
2018-11-20T00:24:49.073Z,4.73
2018-11-20T00:30:45.747Z,4.07
2018-11-20T00:36:47.794Z,6.23
2018-11-20T00:42:30.497Z,4.03
2018-11-20T00:48:13.482Z,5.13
2018-11-20T00:54:17.011Z,5.53
2018-11-20T00:59:59.884Z,3.87
2018-11-20T01:06:01.952Z,6.80
2018-11-20T01:12:04.310Z,6.33
2018-11-20T01:17:38.299Z,5.47
2018-11-20T01:23:21.266Z,5.83
2018-11-20T01:29:24.526Z,9.73
2018-11-20T01:35:08.172Z,6.27
2018-11-20T01:40:50.870Z,5.87
2018-11-20T01:46:14.098Z,7.70
2018-11-20T01:51:30.726Z,6.70
2018-11-20T01:57:05.017Z,6.83
2018-11-20T02:02:47.781Z,8.70
2018-11-20T02:08:30.543Z,8.10
2018-11-20T02:14:14.551Z,8.43
2018-11-20T02:19:38.210Z,7.27
2018-11-20T02:25:40.470Z,7.87
2018-11-20T02:31:42.733Z,7.80
2018-11-20T02:37:44.826Z,7.43
2018-11-20T02:43:46.955Z,9.00
2018-11-20T02:49:29.578Z,8.20
2018-11-20T02:55:31.637Z,10.57
2018-11-20T03:01:33.778Z,11.07
2018-11-20T03:06:57.863Z,10.23
2018-11-20T03:12:59.911Z,12.20
2018-11-20T03:18:42.745Z,10.87
2018-11-20T03:24:25.481Z,13.07
2018-11-20T03:30:46.916Z,11.17
2018-11-20T03:36:29.672Z,15.30
2018-11-20T03:42:31.783Z,13.73
2018-11-20T03:48:14.495Z,14.47
2018-11-20T03:53:58.532Z,18.10
2018-11-20T03:59:41.232Z,21.67
2018-11-20T04:05:27.648Z,19.67
2018-11-20T04:11:29.800Z,21.93
2018-11-20T04:16:53.056Z,22.30
2018-11-20T04:22:55.519Z,23.93
2018-11-20T04:28:38.308Z,23.47
2018-11-20T04:34:21.066Z,21.63
2018-11-20T04:40:03.700Z,20.53
2018-11-20T04:45:46.382Z,20.73
2018-11-20T04:51:48.511Z,24.97
2018-11-20T04:57:31.705Z,19.50
2018-11-20T05:03:14.462Z,19.03
2018-11-20T05:09:12.800Z,19.17
2018-11-20T05:15:14.848Z,14.30
2018-11-20T05:21:17.525Z,13.87
2018-11-20T05:26:56.795Z,18.60
2018-11-20T05:32:39.507Z,20.47
2018-11-20T05:38:22.177Z,19.73
2018-11-20T05:44:04.784Z,17.80
2018-11-20T05:49:40.190Z,18.13
2018-11-20T05:55:22.881Z,19.67
2018-11-20T06:01:06.059Z,17.77
2018-11-20T06:06:48.640Z,18.47
2018-11-20T06:12:50.961Z,16.50
2018-11-20T06:18:53.071Z,18.20
2018-11-20T06:30:51.828Z,15.43
2018-11-20T06:36:16.054Z,13.83
2018-11-20T06:41:39.614Z,19.80
2018-11-20T06:47:41.666Z,15.30
2018-11-20T06:53:24.375Z,21.07
2018-11-20T07:05:09.290Z,21.70
2018-11-20T07:10:53.523Z,17.77
2018-11-20T07:16:56.137Z,14.80
2018-11-20T07:22:39.118Z,20.07
2018-11-20T07:28:41.188Z,14.63
2018-11-20T07:34:23.974Z,19.00
2018-11-20T07:40:06.418Z,18.93
2018-11-20T07:45:48.999Z,21.03
2018-11-20T07:51:33.519Z,18.70
2018-11-20T07:57:34.447Z,17.97
2018-11-20T08:03:36.485Z,21.57
2018-11-20T08:09:38.830Z,19.67
2018-11-20T08:21:29.730Z,13.33
2018-11-20T08:27:32.031Z,16.10
2018-11-20T08:33:14.938Z,20.53
2018-11-20T08:39:17.224Z,16.33
2018-11-20T08:45:19.478Z,16.90
2018-11-20T08:51:21.665Z,17.07
2018-11-20T09:03:11.776Z,21.07
2018-11-20T09:08:55.292Z,20.70
2018-11-20T09:14:38.043Z,17.43
2018-11-20T09:26:02.588Z,21.17
2018-11-20T09:31:47.762Z,22.20
2018-11-20T09:37:04.438Z,18.73
2018-11-20T09:42:32.520Z,19.03
2018-11-20T09:48:14.969Z,20.03
2018-11-20T09:59:06.765Z,15.70
2018-11-20T10:09:49.563Z,17.43
2018-11-20T10:15:13.733Z,16.67
2018-11-20T10:20:29.954Z,21.80
2018-11-20T10:25:45.973Z,23.37
2018-11-20T10:31:11.716Z,21.23
2018-11-20T10:36:52.124Z,20.63
2018-11-20T10:42:15.359Z,22.90
2018-11-20T10:47:42.069Z,18.87
2018-11-20T10:53:26.079Z,21.40
2018-11-20T10:59:10.891Z,20.07
2018-11-20T11:05:02.822Z,17.47
2018-11-20T11:24:25.186Z,17.10
2018-11-20T11:35:17.840Z,21.53
2018-11-20T11:40:53.550Z,18.60
2018-11-20T11:51:53.863Z,20.33
2018-11-20T11:57:38.557Z,17.17
2018-11-20T12:03:21.115Z,18.37
2018-11-20T12:13:27.316Z,17.80
2018-11-20T12:19:38.605Z,20.43
2018-11-20T12:48:13.796Z,22.57
2018-11-20T12:53:40.693Z,19.83
2018-11-20T13:05:24.296Z,17.33
2018-11-20T13:11:26.388Z,18.03
2018-11-20T13:17:11.159Z,18.13
2018-11-20T13:22:51.726Z,11.73
2018-11-20T13:28:53.517Z,19.73
2018-11-20T13:34:38.264Z,16.33
2018-11-20T13:40:23.154Z,14.83
2018-11-20T13:51:11.908Z,20.63
2018-11-20T13:56:47.554Z,23.77
2018-11-20T14:02:42.448Z,18.33
2018-11-20T14:13:48.239Z,22.13
2018-11-20T14:19:41.399Z,24.27
2018-11-20T14:25:45.130Z,24.53
2018-11-20T14:31:19.396Z,16.17
2018-11-20T14:43:33.419Z,17.37
2018-11-20T14:49:40.967Z,23.50
2018-11-20T14:55:06.456Z,19.53
2018-11-20T15:00:48.843Z,24.07
2018-11-20T15:22:50.581Z,21.80
2018-11-20T15:28:18.607Z,22.30
2018-11-20T15:57:08.867Z,21.17
2018-11-20T16:19:10.955Z,22.67
2018-11-20T16:24:35.430Z,22.57
2018-11-20T16:30:37.528Z,22.93
2018-11-20T16:36:39.279Z,18.00
2018-11-20T16:42:22.824Z,22.27
2018-11-20T16:48:27.158Z,19.97
2018-11-20T16:54:13.270Z,17.97
2018-11-20T17:06:00.286Z,15.17
2018-11-20T17:11:56.451Z,16.17
2018-11-20T17:34:24.937Z,15.90
2018-11-20T17:45:29.645Z,18.23
2018-11-20T17:51:04.586Z,17.10
2018-11-20T17:56:20.786Z,15.03
2018-11-20T18:02:19.628Z,15.93
2018-11-20T18:30:09.968Z,12.33
2018-11-20T18:35:34.482Z,11.93
2018-11-20T18:47:42.642Z,13.93
2018-11-20T19:31:59.210Z,11.50
2018-11-20T19:37:58.739Z,15.30
2018-11-20T19:50:28.231Z,10.37
2018-11-20T20:14:31.923Z,12.37
